Tiempo atmosférico en la estación meteorológica de Antigua, Las Palmas (252 m.)



Fecha
DESCASC
Temp. máxima en grados centígrados (hora)
DESCASC
Temp. mínima en grados centígrados (hora)
DESCASC
Temp. media en grados centígrados
DESCASC
Racha de viento máxima en m/sg (hora)
DESCASC
Velocidad máxima media en intervalos de 10 minutos(hora)
DESCASC
Precipitaciones diarias en mm
DESCASC
Precipitaciones de 00:00 a 06:00 en mm
DESCASC
Precipitaciones de 06:00 a 12:00 en mm
DESCASC
Precipitaciones de 12:00 a 18:00 en mm
DESCASC
Precipitaciones de 18:00 a 24:00 en mm
DESCASC
20-09-2018 28.1 (14:20) 18.9 (07:10) 23.5 11.11 (16:30) 7.5 (16:30) 0 0 0 0 0
19-09-2018 30.3 (16:10) 18.7 (07:40) 24.5 11.11 (16:40) 7.78 (16:40) 0 0 0 0 0
18-09-2018 27.1 (17:30) 20.6 (05:20) 23.9 8.61 (14:50) 5.83 (12:10) 0 0 0 0 0
17-09-2018 25.7 (15:50) 19.9 (04:50) 22.8 13.61 (00:20) 9.44 (00:20) 0 0 0 0 0
16-09-2018 25.2 (14:20) 19.8 (00:00) 22.5 15.28 (15:50) 10.83 (16:10) 0 0 0 0 0
15-09-2018 26 (15:10) 19.7 (00:00) 22.9 11.67 (04:00) 8.89 (02:10) 0 0 0 0 0
14-09-2018 31 (14:10) 21 (00:00) 26 8.89 (23:10) 6.67 (23:10) 0 0 0 0 0
13-09-2018 31.1 (16:00) 21.2 (00:00) 26.2 9.17 (13:40) 5.56 (12:10) 0 0 0 0 0
12-09-2018 30.6 (15:00) 19.8 (00:00) 25.2 11.39 (11:40) 7.78 (11:40) 0 0 0 0 0
11-09-2018 26.8 (15:00) 18.2 (00:00) 22.5 10.28 (15:50) 6.39 (16:50) 0 0 0 0 0
10-09-2018 25.3 (12:50) 18.5 (00:00) 21.9 14.17 (15:10) 10 (16:20) 0 0 0 0 0
09-09-2018 25.2 (13:50) 17.1 (00:00) 21.2 15.28 (13:30) 9.44 (15:20) 0 0 0 0 0
08-09-2018 25.8 (15:00) 15.7 (00:00) 20.7 13.89 (15:50) 10 (15:50) 0 0 0 0 0
07-09-2018 26.1 (14:30) 17 (00:00) 21.6 15 (14:40) 8.89 (19:00) 0 0 0 0 0
06-09-2018 26.5 (16:10) 19.7 (00:00) 23.1 10.56 (06:20) 7.78 (06:10) 0.2 0.2 0 0 0
05-09-2018 27.5 (14:50) 17.9 (00:00) 22.7 13.06 (13:30) 8.89 (15:40) 0 0 0 0 0
04-09-2018 27.3 (16:20) 18.1 (00:00) 22.7 13.61 (16:30) 8.33 (17:00) 0 0 0 0 0
03-09-2018 27 (15:50) 17.4 (00:00) 22.2 12.22 (16:40) 9.17 (16:40) 0 0 0 0 0
02-09-2018 26 (13:20) 17.9 (00:00) 21.9 12.78 (19:00) 10 (19:00) 0 0 0 0 0
01-09-2018 26.7 (14:00) 19.6 (00:00) 23.2 11.39 (23:30) 8.33 (23:30) 0 0 0 0 0
31-08-2018 26 (14:10) 18.9 (00:00) 22.4 13.89 (15:40) 10.56 (16:20) 0 0 0 0 0
30-08-2018 27.1 (15:50) 17.4 (00:00) 22.3 19.17 (15:50) 10 (18:30) 0 0 0 0 0
29-08-2018 26 (14:50) 18.5 (00:00) 22.3 14.17 (15:50) 8.89 (20:00) 0 0 0 0 0
28-08-2018 27.4 (16:10) 17.7 (00:00) 22.6 14.17 (06:30) 10.28 (05:50) 0 0 0 0 0
27-08-2018 25.3 (14:30) 18.7 (00:00) 22 14.72 (12:30) 10.28 (13:50) 0 0 0 0 0
26-08-2018 27.2 (14:30) 19.2 (00:00) 23.2 12.5 (14:40) 9.17 (14:40) 0 0 0 0 0
25-08-2018 32.3 (14:00) 18.9 (00:00) 25.6 14.17 (12:50) 8.89 (12:50) 0 0 0 0 0

Gráficas

Temp. máximas Temp. mínimas Temp. medias Precipitaciones Rachas de viento máximas Velocidades máximas media en intervalos de 10 minutos

Datos horarios

Fecha y hora oficial Temperatura (ºC) Velocidad del viento (km/h) Dirección del viento Racha (km/h) Dirección de racha Precipitación (mm) Presión (hPa) Tendencia (hPa) Humedad (%)
2018-09-23 23:00:00 22.2 9 Noroeste 21 Norte 0 -- -- 85
2018-09-23 22:00:00 22.7 18 Norte 29 Norte 0 -- -- 84
2018-09-23 21:00:00 23.2 19 Norte 29 Norte 0 -- -- 82
2018-09-23 20:00:00 24.1 20 Norte 31 Noroeste 0 -- -- 79
2018-09-23 19:00:00 26.6 22 Norte 31 Norte 0 -- -- 68
2018-09-23 18:00:00 29.3 21 Noroeste 29 Noroeste 0 -- -- 59
2018-09-23 17:00:00 32.1 17 Norte 33 Norte 0 -- -- 47
2018-09-23 16:00:00 31 19 Noroeste 31 Noroeste 0 -- -- 52
2018-09-23 15:00:00 30.2 21 Norte 34 Noroeste 0 -- -- 57
2018-09-23 14:00:00 29.5 22 Noroeste 35 Noroeste 0 -- -- 60
2018-09-23 13:00:00 28.5 23 Norte 35 Noroeste 0 -- -- 62
2018-09-23 12:00:00 26.7 25 Noroeste 35 Norte 0 -- -- 69
2018-09-23 11:00:00 25.5 25 Norte 33 Norte 0 -- -- 74
2018-09-23 10:00:00 23.2 23 Norte 32 Norte 0 -- -- 85
2018-09-23 09:00:00 21.3 18 Norte 31 Norte 0 -- -- 94
2018-09-23 08:00:00 20.6 18 Norte 34 Noroeste 0 -- -- 94
2018-09-23 07:00:00 20.6 23 Norte 36 Noroeste 0 -- -- 94
2018-09-23 06:00:00 20.5 23 Noroeste 35 Noroeste 0 -- -- 94
2018-09-23 05:00:00 20.6 26 Norte 37 Norte 0 -- -- 91
2018-09-23 04:00:00 22.2 24 Noroeste 33 Noroeste 0 -- -- 76
2018-09-23 03:00:00 22.7 17 Noroeste 30 Noroeste 0 -- -- 70
2018-09-23 02:00:00 21.8 18 Nordeste 30 Nordeste 0 -- -- 75
2018-09-23 01:00:00 21.7 8 Norte 17 Noroeste 0 -- -- 74
2018-09-23 00:00:00 20.7 5 Norte 20 Noroeste 0 -- -- 91
2018-09-22 23:00:00 20.8 16 Norte 37 Norte 0 -- -- 92
2018-09-22 22:00:00 21 28 Norte 42 Noroeste 0 -- -- 91
2018-09-22 21:00:00 21.2 31 Noroeste 42 Noroeste 0 -- -- 89
2018-09-22 20:00:00 22.2 28 Noroeste 37 Noroeste 0 -- -- 84
2018-09-22 19:00:00 23.8 30 Norte 44 Noroeste 0 -- -- 77
2018-09-22 18:00:00 25.3 31 Norte 41 Noroeste 0 -- -- 71
2018-09-22 17:00:00 26.4 30 Norte 44 Noroeste 0 -- -- 66
2018-09-22 16:00:00 27 30 Noroeste 43 Noroeste 0 -- -- 64
2018-09-22 15:00:00 27 32 Noroeste 42 Noroeste 0 -- -- 64
2018-09-22 14:00:00 27.3 26 Norte 35 Noroeste 0 -- -- 63
2018-09-22 13:00:00 26.6 21 Noroeste 33 Noroeste 0 -- -- 64
2018-09-22 12:00:00 26.6 13 Norte 22 Noroeste 0 -- -- 59
2018-09-22 11:00:00 24.7 12 Norte 21 Noroeste 0 -- -- 62
2018-09-22 10:00:00 22.2 7 Norte 13 Norte 0 -- -- 78
2018-09-22 09:00:00 20.2 12 Norte 28 Noroeste 0 -- -- 87
2018-09-22 08:00:00 19.2 21 Noroeste 34 Noroeste 0 -- -- 90
2018-09-22 07:00:00 19.2 26 Norte 35 Noroeste 0 -- -- 89
2018-09-22 06:00:00 19 18 Noroeste 31 Noroeste 0 -- -- 91
2018-09-22 05:00:00 19.3 20 Noroeste 36 Noroeste 0 -- -- 91
2018-09-22 04:00:00 19.3 22 Noroeste 33 Noroeste 0 -- -- 91
2018-09-22 03:00:00 19.4 21 Noroeste 28 Noroeste 0 -- -- 89
2018-09-22 02:00:00 19.1 15 Noroeste 21 Noroeste 0 -- -- 90
2018-09-22 01:00:00 19.3 18 Norte 27 Norte 0 -- -- 89
2018-09-22 00:00:00 19.7 15 Norte 31 Norte 0 -- -- 88
2018-09-21 23:00:00 20.1 21 Norte 36 Norte 0 -- -- 87
2018-09-21 22:00:00 20.3 24 Noroeste 37 Noroeste 0 -- -- 85
2018-09-21 21:00:00 20.5 26 Norte 41 Noroeste 0 -- -- 85
2018-09-21 20:00:00 21.2 26 Noroeste 38 Noroeste 0 -- -- 82
2018-09-21 19:00:00 22.6 28 Noroeste 39 Noroeste 0 -- -- 74
2018-09-21 18:00:00 23.9 30 Norte 43 Noroeste 0 -- -- 71
2018-09-21 17:00:00 24.9 30 Noroeste 46 Noroeste 0 -- -- 67
2018-09-21 16:00:00 25.2 32 Noroeste 43 Noroeste 0 -- -- 67
2018-09-21 15:00:00 26.3 32 Noroeste 45 Noroeste 0 -- -- 62
2018-09-21 14:00:00 26.7 28 Norte 42 Noroeste 0 -- -- 61
2018-09-21 13:00:00 26.3 28 Norte 44 Norte 0 -- -- 63
2018-09-21 12:00:00 25.7 17 Norte 32 Norte 0 -- -- 59
2018-09-21 11:00:00 24.3 18 Norte 31 Norte 0 -- -- 64
2018-09-21 10:00:00 22.7 19 Norte 28 Norte 0 -- -- 72
2018-09-21 09:00:00 21.1 11 Norte 15 Norte 0 -- -- 75
2018-09-21 08:00:00 19.4 9 Norte 18 Norte 0 -- -- 79
2018-09-21 07:00:00 19.9 12 Norte 18 Norte 0 -- -- 79
2018-09-21 06:00:00 19.2 9 Norte 19 Norte 0 -- -- 82
2018-09-21 05:00:00 19.9 12 Norte 27 Norte 0 -- -- 80
2018-09-21 04:00:00 19.9 17 Norte 23 Norte 0 -- -- 83
2018-09-21 03:00:00 18.9 9 Norte 14 Norte 0 -- -- 91
2018-09-21 02:00:00 19 10 Norte 18 Norte 0 -- -- 90
2018-09-21 01:00:00 -- 13 Noroeste 24 Noroeste 0 -- -- --
2018-09-21 00:00:00 20.1 16 Norte 24 Noroeste 0 -- -- 86
2018-09-20 23:00:00 20.5 18 Noroeste 30 Noroeste 0 -- -- 86
2018-09-20 22:00:00 20.8 19 Noroeste 30 Noroeste 0 -- -- 84
2018-09-20 21:00:00 21.3 19 Noroeste 28 Norte 0 -- -- 81
2018-09-20 20:00:00 22.5 19 Norte 28 Noroeste 0 -- -- 76
2018-09-20 19:00:00 24.7 19 Norte 35 Noroeste 0 -- -- 66
2018-09-20 18:00:00 26.1 23 Noroeste 36 Noroeste 0 -- -- 62
2018-09-20 17:00:00 27.1 26 Noroeste 40 Noroeste 0 -- -- 58
2018-09-20 16:00:00 27.8 23 Norte 33 Norte 0 -- -- 59
2018-09-20 15:00:00 27.9 23 Norte 38 Norte 0 -- -- 58
2018-09-20 14:00:00 27.9 19 Noroeste 31 Noroeste 0 -- -- 60
2018-09-20 13:00:00 26.6 19 Norte 29 Norte 0 -- -- 64
2018-09-20 12:00:00 25.6 14 Norte 26 Noroeste 0 -- -- 67
2018-09-20 11:00:00 24.3 13 Norte 18 Norte 0 -- -- 71
2018-09-20 10:00:00 22.6 13 Norte 25 Norte 0 -- -- 81
2018-09-20 09:00:00 21.2 17 Norte 23 Norte 0 -- -- 88
2018-09-20 08:00:00 19.3 8 Noroeste 12 Norte 0 -- -- 92
2018-09-20 07:00:00 19 5 Noroeste 6 Noroeste 0 -- -- 89
2018-09-20 06:00:00 20.1 0 Calma 9 Noroeste 0 -- -- 90
2018-09-20 05:00:00 20.2 6 Norte 9 Este 0 -- -- 89
2018-09-20 04:00:00 20.6 5 Este 12 Este 0 -- -- 89
2018-09-20 03:00:00 21.1 8 Nordeste 12 Este 0 -- -- 88
2018-09-20 02:00:00 21.3 10 Este 16 Este 0 -- -- 88
2018-09-20 01:00:00 21.4 6 Este 21 Este 0 -- -- 89
2018-09-20 00:00:00 21.5 13 Este 20 Este 0 -- -- 89
2018-09-19 23:00:00 21.7 8 Nordeste 15 Este 0 -- -- 86
2018-09-19 22:00:00 22 8 Nordeste 17 Este 0 -- -- 83
2018-09-19 21:00:00 22.9 9 Este 15 Sudeste 0 -- -- 81
2018-09-19 20:00:00 23.1 9 Este 25 Este 0 -- -- 81
2018-09-19 19:00:00 26.5 14 Este 27 Norte 0 -- -- 66
2018-09-19 18:00:00 29.1 16 Nordeste 32 Noroeste 0 -- -- 56
2018-09-19 17:00:00 28.8 24 Norte 40 Norte 0 -- -- 56
2018-09-19 16:00:00 29.3 23 Noroeste 33 Noroeste 0 -- -- 55
2018-09-19 15:00:00 28.2 9 Norte 23 Este 0 -- -- 58
2018-09-19 14:00:00 27.6 10 Este 23 Este 0 -- -- 60
2018-09-19 13:00:00 26.9 12 Este 22 Este 0 -- -- 60
2018-09-19 12:00:00 26 11 Este 26 Sudeste 0 -- -- 63
2018-09-19 11:00:00 25.9 14 Sudeste 25 Sudeste 0 -- -- 62
2018-09-19 10:00:00 25 11 Este 16 Sudeste 0 -- -- 63
2018-09-19 09:00:00 21.9 6 Norte 13 Oeste 0 -- -- 78
2018-09-19 08:00:00 18.9 6 Noroeste 14 Oeste 0 -- -- 92
2018-09-19 07:00:00 19.2 2 Oeste 8 Norte 0 -- -- 90
2018-09-19 06:00:00 19.7 3 Norte 15 Este 0 -- -- 89
2018-09-19 05:00:00 20.1 7 Norte 19 Este 0 -- -- 89
2018-09-19 04:00:00 20.1 6 Este 18 Nordeste 0 -- -- 90
2018-09-19 03:00:00 20.3 15 Nordeste 24 Nordeste 0 -- -- 89
2018-09-19 02:00:00 20.7 17 Nordeste 25 Nordeste 0 -- -- 89
2018-09-19 01:00:00 20.9 10 Este 23 Este 0 -- -- 88
2018-09-19 00:00:00 21.1 13 Nordeste 23 Este 0 -- -- 87
2018-09-18 23:00:00 21.4 11 Nordeste 18 Nordeste 0 -- -- 88
2018-09-18 22:00:00 21.4 12 Nordeste 22 Nordeste 0 -- -- 88
2018-09-18 21:00:00 21.7 13 Nordeste 22 Nordeste 0 -- -- 84
2018-09-18 20:00:00 22.9 14 Nordeste 22 Norte 0 -- -- 79
2018-09-18 19:00:00 25.2 15 Nordeste 28 Sudoeste 0 -- -- 70
2018-09-18 18:00:00 27 9 Nordeste 23 Este 0 -- -- 60
2018-09-18 17:00:00 26.8 11 Nordeste 24 Nordeste 0 -- -- 60
2018-09-18 16:00:00 26.5 12 Este 25 Nordeste 0 -- -- 58
2018-09-18 15:00:00 25.8 14 Este 31 Este 0 -- -- 63
2018-09-18 14:00:00 25.9 17 Este 29 Este 0 -- -- 62
2018-09-18 13:00:00 25.7 19 Este 30 Este 0 -- -- 59
2018-09-18 12:00:00 24.9 18 Este 29 Este 0 -- -- 63
2018-09-18 11:00:00 23 18 Este 26 Este 0 -- -- 69
2018-09-18 10:00:00 21.9 12 Este 25 Nordeste 0 -- -- 73
2018-09-18 09:00:00 21.2 14 Nordeste 26 Nordeste 0 -- -- 76
2018-09-18 08:00:00 20.8 12 Nordeste 23 Nordeste 0 -- -- 76
2018-09-18 07:00:00 20.8 14 Nordeste 24 Nordeste 0 -- -- 79
2018-09-18 06:00:00 20.8 15 Nordeste 22 Nordeste 0 -- -- 77
2018-09-18 05:00:00 20.7 14 Nordeste 26 Nordeste 0 -- -- 77
2018-09-18 04:00:00 20.8 17 Nordeste 26 Nordeste 0 -- -- 78
2018-09-18 03:00:00 20.9 12 Nordeste 24 Nordeste 0 -- -- 80
2018-09-18 02:00:00 21.1 12 Nordeste 21 Nordeste 0 -- -- 77
2018-09-18 01:00:00 21 12 Nordeste 19 Nordeste 0 -- -- 76
2018-09-18 00:00:00 21.1 11 Nordeste 22 Norte 0 -- -- 75
2018-09-17 23:00:00 21 15 Norte 27 Norte 0 -- -- 76
2018-09-17 22:00:00 21 20 Norte 29 Norte 0 -- -- 81
2018-09-17 21:00:00 21.3 20 Norte 31 Norte 0 -- -- 82
2018-09-17 20:00:00 21.3 22 Norte 38 Norte 0 -- -- 81
2018-09-17 19:00:00 22.8 27 Noroeste 39 Norte 0 -- -- 73
2018-09-17 18:00:00 24.1 29 Norte 39 Noroeste 0 -- -- 68
2018-09-17 17:00:00 24.5 28 Noroeste 40 Noroeste 0 -- -- 66
2018-09-17 16:00:00 25.4 27 Noroeste 39 Noroeste 0 -- -- 63
2018-09-17 15:00:00 24.9 24 Noroeste 33 Norte 0 -- -- 65
2018-09-17 14:00:00 24.4 19 Norte 32 Noroeste 0 -- -- 67
2018-09-17 13:00:00 24.2 13 Norte 28 Norte 0 -- -- 65
2018-09-17 12:00:00 23.2 16 Norte 27 Norte 0 -- -- 69
2018-09-17 11:00:00 22.4 12 Nordeste 23 Norte 0 -- -- 70
2018-09-17 10:00:00 21.3 17 Norte 26 Norte 0 -- -- 75
2018-09-17 09:00:00 20.6 17 Norte 31 Noroeste 0 -- -- 83
2018-09-17 08:00:00 20.1 17 Norte 28 Norte 0 -- -- 86
2018-09-17 07:00:00 20 23 Norte 37 Norte 0 -- -- 85
2018-09-17 06:00:00 20.2 19 Norte 35 Norte 0 -- -- 86
2018-09-17 05:00:00 20 29 Norte 46 Noroeste 0 -- -- 86
2018-09-17 04:00:00 20 30 Noroeste 43 Norte 0 -- -- 85
2018-09-17 03:00:00 20.1 33 Norte 44 Norte 0 -- -- 85
2018-09-17 02:00:00 20.1 30 Norte 45 Norte 0 -- -- 86
2018-09-17 01:00:00 20.3 30 Norte 49 Noroeste 0 -- -- 86
2018-09-17 00:00:00 20.3 31 Noroeste 48 Noroeste 0 -- -- 86
2018-09-16 23:00:00 20.7 30 Noroeste 46 Noroeste 0 -- -- 85
2018-09-16 22:00:00 20.7 31 Noroeste 46 Noroeste 0 -- -- 84
2018-09-16 21:00:00 20.7 31 Noroeste 46 Norte 0 -- -- 86
2018-09-16 20:00:00 21.1 33 Noroeste 50 Noroeste 0 -- -- 82
2018-09-16 19:00:00 22.7 37 Noroeste 49 Noroeste 0 -- -- 72
2018-09-16 18:00:00 23.5 36 Norte 51 Noroeste 0 -- -- 69
2018-09-16 17:00:00 24.2 36 Norte 52 Noroeste 0 -- -- 70
2018-09-16 16:00:00 24.8 38 Norte 55 Noroeste 0 -- -- 68
2018-09-16 15:00:00 24.5 34 Noroeste 51 Noroeste 0 -- -- 70
2018-09-16 14:00:00 24.6 36 Noroeste 53 Noroeste 0 -- -- 69
2018-09-16 13:00:00 24.5 33 Norte 49 Noroeste 0 -- -- 71
2018-09-16 12:00:00 24 33 Noroeste 50 Noroeste 0 -- -- 70
2018-09-16 11:00:00 23.1 36 Noroeste 50 Noroeste 0 -- -- 76
2018-09-16 10:00:00 22.3 34 Noroeste 54 Noroeste 0 -- -- 80
2018-09-16 09:00:00 21 33 Noroeste 49 Noroeste 0 -- -- 87
2018-09-16 08:00:00 19.9 30 Noroeste 45 Noroeste 0 -- -- 90
2018-09-16 07:00:00 20 32 Noroeste 44 Noroeste 0 -- -- 90
2018-09-16 06:00:00 20 31 Noroeste 40 Noroeste 0 -- -- 92
2018-09-16 05:00:00 19.8 24 Noroeste 33 Noroeste 0 -- -- 92
2018-09-16 04:00:00 19.9 25 Noroeste 32 Noroeste 0 -- -- 90
2018-09-16 03:00:00 20.1 17 Noroeste 26 Noroeste 0 -- -- 92
2018-09-16 02:00:00 20.5 21 Noroeste 27 Noroeste 0 -- -- 91
2018-09-16 01:00:00 20.6 18 Noroeste 32 Norte 0 -- -- 89
2018-09-16 00:00:00 20.9 20 Norte 32 Norte 0 -- -- 88
2018-09-15 23:00:00 21 22 Norte 31 Noroeste 0 -- -- 88
2018-09-15 22:00:00 21.1 21 Norte 34 Noroeste 0 -- -- 86
2018-09-15 21:00:00 21.4 24 Norte 39 Noroeste 0 -- -- 86
2018-09-15 20:00:00 21.7 29 Noroeste 39 Noroeste 0 -- -- 80
2018-09-15 19:00:00 22.5 26 Noroeste 37 Noroeste 0 -- -- 78
2018-09-15 18:00:00 23.5 26 Noroeste 36 Noroeste 0 -- -- 69
2018-09-15 17:00:00 24.5 23 Norte 35 Noroeste 0 -- -- 64
2018-09-15 16:00:00 25.9 21 Noroeste 36 Noroeste 0 -- -- 56
2018-09-15 15:00:00 25.6 23 Noroeste 32 Noroeste 0 -- -- 59
2018-09-15 14:00:00 25.5 18 Noroeste 32 Noroeste 0 -- -- 58
2018-09-15 13:00:00 25.1 23 Noroeste 33 Noroeste 0 -- -- 62
2018-09-15 12:00:00 24.8 19 Noroeste 30 Norte 0 -- -- 66
2018-09-15 11:00:00 23.5 19 Norte 29 Norte 0 -- -- 71
2018-09-15 10:00:00 22.1 17 Norte 27 Noroeste 0 -- -- 80
2018-09-15 09:00:00 20.5 15 Norte 22 Noroeste 0 -- -- 92
2018-09-15 08:00:00 19.8 9 Noroeste 15 Noroeste 0 -- -- 92
2018-09-15 07:00:00 20.1 8 Noroeste 18 Norte 0 -- -- 91
2018-09-15 06:00:00 20.6 13 Norte 21 Noroeste 0 -- -- 92
2018-09-15 05:00:00 20.9 14 Noroeste 40 Noroeste 0 -- -- 92
2018-09-15 04:00:00 21.1 30 Noroeste 42 Noroeste 0 -- -- 91
2018-09-15 03:00:00 21.3 25 Noroeste 42 Noroeste 0 -- -- 91
2018-09-15 02:00:00 21.5 31 Noroeste 40 Norte 0 -- -- 91
2018-09-15 01:00:00 21.7 26 Noroeste 35 Noroeste 0 -- -- 87
2018-09-15 00:00:00 21.9 21 Noroeste 32 Noroeste 0 -- -- 86
2018-09-14 23:00:00 22.4 22 Norte 31 Norte 0 -- -- 85
2018-09-14 22:00:00 23.6 11 Norte 18 Norte 0 -- -- 73
2018-09-14 21:00:00 24.3 15 Norte 24 Noroeste 0 -- -- 70
2018-09-14 20:00:00 25.1 15 Noroeste 24 Noroeste 0 -- -- 66
2018-09-14 19:00:00 26.6 19 Noroeste 24 Noroeste 0 -- -- 59
2018-09-14 18:00:00 28.4 17 Noroeste 23 Noroeste 0 -- -- 56
2018-09-14 17:00:00 29.4 12 Noroeste 26 Norte 0 -- -- 54
2018-09-14 16:00:00 29.7 15 Norte 25 Norte 0 -- -- 55
2018-09-14 15:00:00 30.1 16 Norte 24 Norte 0 -- -- 55
2018-09-14 14:00:00 30.2 8 Este 20 Este 0 -- -- 47
2018-09-14 13:00:00 29.2 8 Nordeste 18 Este 0 -- -- 51
2018-09-14 12:00:00 28.3 8 Este 17 Este 0 -- -- 53
2018-09-14 11:00:00 26.6 8 Este 16 Este 0 -- -- 60
2018-09-14 10:00:00 25.2 6 Este 12 Este 0 -- -- 64
2018-09-14 09:00:00 23.4 3 Sudeste 7 Sudoeste 0 -- -- 74
2018-09-14 08:00:00 21.4 6 Sudoeste 9 Sudoeste 0 -- -- 80
2018-09-14 07:00:00 21.5 3 Sudoeste 6 Noroeste 0 -- -- 81
2018-09-14 06:00:00 21.2 4 Norte 9 Noroeste 0 -- -- 83
2018-09-14 05:00:00 21.5 4 Oeste 14 Noroeste 0 -- -- 83
2018-09-14 04:00:00 21.6 5 Noroeste 20 Este 0 -- -- 85
2018-09-14 03:00:00 21.9 7 Nordeste 15 Nordeste 0 -- -- 84
2018-09-14 02:00:00 22.5 5 Nordeste 13 Nordeste 0 -- -- 77
2018-09-14 01:00:00 23.3 5 Noroeste 14 Noroeste 0 -- -- 69
2018-09-14 00:00:00 23.3 4 Norte 13 Norte 0 -- -- 70
2018-09-13 23:00:00 23.5 2 Este 5 Sudeste 0 -- -- 72
2018-09-13 22:00:00 23.8 3 Sudeste 8 Sudeste 0 -- -- 69
2018-09-13 21:00:00 24.4 4 Este 12 Este 0 -- -- 66
2018-09-13 20:00:00 26.3 10 Este 16 Este 0 -- -- 60
2018-09-13 19:00:00 28.4 12 Este 21 Este 0 -- -- 51
2018-09-13 18:00:00 29.7 13 Este 22 Este 0 -- -- 49
2018-09-13 17:00:00 30.6 15 Este 27 Este 0 -- -- 47
2018-09-13 16:00:00 31.1 13 Este 23 Este 0 -- -- 45
2018-09-13 15:00:00 30.1 14 Este 28 Este 0 -- -- 47
2018-09-13 14:00:00 30 18 Este 33 Sudeste 0 -- -- 48
2018-09-13 13:00:00 29.2 18 Este 32 Este 0 -- -- 51
2018-09-13 12:00:00 28.2 18 Sudeste 27 Este 0 -- -- 54
2018-09-13 11:00:00 26.4 13 Sudeste 23 Sudeste 0 -- -- 59
2018-09-13 10:00:00 24.8 13 Sudeste 21 Sudeste 0 -- -- 68
2018-09-13 09:00:00 23 5 Sudeste 11 Sudeste 0 -- -- 74
2018-09-13 08:00:00 21.8 4 Sur 10 Sur 0 -- -- 77
2018-09-13 07:00:00 22 3 Este 7 Nordeste 0 -- -- 76
2018-09-13 06:00:00 21.5 3 Noroeste 4 Noroeste 0 -- -- 77
2018-09-13 05:00:00 21.5 2 Noroeste 5 Sudoeste 0 -- -- 78
2018-09-13 04:00:00 21.9 3 Sudoeste 8 Sur 0 -- -- 78
2018-09-13 03:00:00 22.2 3 Sudoeste 6 Sudoeste 0 -- -- 78
2018-09-13 02:00:00 22.5 4 Sur 6 Sur 0 -- -- 77
2018-09-13 01:00:00 23 3 Sudeste 11 Este 0 -- -- 74
2018-09-13 00:00:00 23.6 5 Sudeste 12 Este 0 -- -- 71
2018-09-12 23:00:00 23.8 0 Calma 9 Este 0 -- -- 70
2018-09-12 22:00:00 24.1 2 Este 12 Este 0 -- -- 70
2018-09-12 21:00:00 24.4 6 Nordeste 16 Este 0 -- -- 69
2018-09-12 20:00:00 24.3 11 Este 23 Este 0 -- -- 71
2018-09-12 19:00:00 25 18 Este 29 Este 0 -- -- 70
2018-09-12 18:00:00 26.3 22 Este 31 Este 0 -- -- 66
2018-09-12 17:00:00 28.1 19 Este 32 Este 0 -- -- 61
2018-09-12 16:00:00 29.1 16 Este 32 Este 0 -- -- 58
2018-09-12 15:00:00 30.6 17 Sudeste 34 Sudeste 0 -- -- 51
2018-09-12 14:00:00 29.5 21 Sudeste 37 Sudeste 0 -- -- 55
2018-09-12 13:00:00 28.5 21 Sudeste 39 Sudeste 0 -- -- 60
2018-09-12 12:00:00 27.6 26 Sudeste 41 Sudeste 0 -- -- 63
2018-09-12 11:00:00 25.4 14 Sudeste 26 Sudeste 0 -- -- 74
2018-09-12 10:00:00 22.6 10 Este 16 Sudeste 0 -- -- 91
2018-09-12 09:00:00 20.9 4 Sur 9 Sudoeste 0 -- -- 95
2018-09-12 08:00:00 20.3 5 Sudoeste 14 Sudeste 0 -- -- 95
2018-09-12 07:00:00 20.3 11 Sudeste 21 Sudeste 0 -- -- 95
2018-09-12 06:00:00 20.3 10 Sudeste 15 Sudeste 0 -- -- 93
2018-09-12 05:00:00 20.1 6 Sur 10 Sudeste 0 -- -- 89
2018-09-12 04:00:00 20.1 4 Sudeste 12 Noroeste 0 -- -- 90
2018-09-12 03:00:00 19.9 9 Noroeste 12 Noroeste 0 -- -- 90
2018-09-12 02:00:00 20.4 2 Nordeste 8 Este 0 -- -- 89
2018-09-12 01:00:00 20.5 6 Nordeste 21 Este 0 -- -- 87
2018-09-12 00:00:00 20.9 11 Este 28 Este 0 -- -- 88
2018-09-11 23:00:00 21.2 13 Este 22 Este 0 -- -- 87
2018-09-11 22:00:00 21.1 12 Nordeste 24 Norte 0 -- -- 83
2018-09-11 21:00:00 21.6 15 Norte 26 Norte 0 -- -- 82
2018-09-11 20:00:00 23.1 18 Norte 30 Norte 0 -- -- 75
2018-09-11 19:00:00 24.6 14 Nordeste 23 Este 0 -- -- 64
2018-09-11 18:00:00 25.2 15 Nordeste 26 Este 0 -- -- 62
2018-09-11 17:00:00 25.4 20 Este 33 Este 0 -- -- 61
2018-09-11 16:00:00 26.3 20 Este 37 Nordeste 0 -- -- 56
2018-09-11 15:00:00 26.8 17 Nordeste 33 Norte 0 -- -- 53
2018-09-11 14:00:00 25.8 14 Nordeste 29 Nordeste 0 -- -- 59
2018-09-11 13:00:00 25.7 15 Noroeste 25 Norte 0 -- -- 57
2018-09-11 12:00:00 24.3 13 Norte 25 Norte 0 -- -- 58
2018-09-11 11:00:00 23 18 Nordeste 24 Nordeste 0 -- -- 65
2018-09-11 10:00:00 21.4 14 Norte 19 Norte 0 -- -- 74
2018-09-11 09:00:00 19.5 10 Norte 15 Norte 0 -- -- 92
2018-09-11 08:00:00 18.4 9 Norte 19 Noroeste 0 -- -- 94
2018-09-11 07:00:00 18.6 17 Noroeste 27 Noroeste 0 -- -- 93
2018-09-11 06:00:00 18.5 18 Noroeste 25 Noroeste 0 -- -- 93
2018-09-11 05:00:00 18.5 11 Noroeste 18 Noroeste 0 -- -- 92
2018-09-11 04:00:00 18.6 11 Noroeste 16 Noroeste 0 -- -- 90
2018-09-11 03:00:00 19.6 11 Norte 18 Noroeste 0 -- -- 88
2018-09-11 02:00:00 19.7 14 Norte 19 Norte 0 -- -- 88
2018-09-11 01:00:00 19.6 13 Noroeste 18 Noroeste 0 -- -- 87
2018-09-11 00:00:00 19.1 11 Norte 23 Noroeste 0 -- -- 87
2018-09-10 23:00:00 19.2 13 Noroeste 24 Noroeste 0 -- -- 83
2018-09-10 22:00:00 19.8 18 Norte 29 Norte 0 -- -- 79
2018-09-10 21:00:00 20.8 25 Norte 35 Norte 0 -- -- 74
2018-09-10 20:00:00 21.8 25 Norte 38 Noroeste 0 -- -- 67
2018-09-10 19:00:00 22.4 29 Norte 44 Noroeste 0 -- -- 69
2018-09-10 18:00:00 23.8 31 Norte 47 Norte 0 -- -- 66
2018-09-10 17:00:00 24.5 33 Norte 49 Noroeste 0 -- -- 59
2018-09-10 16:00:00 25.2 35 Norte 51 Noroeste 0 -- -- 60
2018-09-10 15:00:00 25 33 Noroeste 48 Noroeste 0 -- -- 60
2018-09-10 14:00:00 24.4 31 Noroeste 49 Norte 0 -- -- 65
2018-09-10 13:00:00 24.8 29 Norte 43 Norte 0 -- -- 55
2018-09-10 12:00:00 24.9 28 Norte 40 Norte 0 -- -- 56
2018-09-10 11:00:00 22.9 25 Norte 41 Norte 0 -- -- 68
2018-09-10 10:00:00 21.2 26 Norte 39 Norte 0 -- -- 79
2018-09-10 09:00:00 20 22 Norte 31 Norte 0 -- -- 84
2018-09-10 08:00:00 18.5 15 Norte 30 Norte 0 -- -- 89
2018-09-10 07:00:00 18.9 18 Norte 33 Noroeste 0 -- -- 88
2018-09-10 06:00:00 18.7 20 Norte 32 Norte 0 -- -- 88
2018-09-10 05:00:00 18.7 19 Norte 35 Norte 0 -- -- 88
2018-09-10 04:00:00 19 20 Norte 39 Norte 0 -- -- 89
2018-09-10 03:00:00 19.2 23 Norte 40 Norte 0 -- -- 88
2018-09-10 02:00:00 19.4 28 Norte 41 Norte 0 -- -- 87
2018-09-10 01:00:00 19.5 26 Norte 40 Norte 0 -- -- 87
2018-09-10 00:00:00 19.5 25 Norte 38 Norte 0 -- -- 87
2018-09-09 23:00:00 19.8 27 Norte 40 Norte 0 -- -- 85
2018-09-09 22:00:00 20.1 24 Norte 35 Norte 0 -- -- 86
2018-09-09 21:00:00 20.2 25 Norte 36 Norte 0 -- -- 81
2018-09-09 20:00:00 21.3 27 Norte 37 Norte 0 -- -- 74
2018-09-09 19:00:00 22.4 23 Norte 41 Norte 0 -- -- 68
2018-09-09 18:00:00 23 19 Nordeste 29 Nordeste 0 -- -- 62
2018-09-09 17:00:00 23 22 Norte 41 Noroeste 0 -- -- 65
2018-09-09 16:00:00 24.2 30 Noroeste 47 Noroeste 0 -- -- 65
2018-09-09 15:00:00 24.7 32 Noroeste 50 Noroeste 0 -- -- 58
2018-09-09 14:00:00 25.1 31 Norte 55 Norte 0 -- -- 59
2018-09-09 13:00:00 24.3 26 Norte 41 Norte 0 -- -- 57
2018-09-09 12:00:00 23.3 27 Norte 36 Norte 0 -- -- 64
2018-09-09 11:00:00 21.7 25 Norte 41 Norte 0 -- -- 70
2018-09-09 10:00:00 21.5 26 Norte 38 Norte 0 -- -- 70
2018-09-09 09:00:00 19.8 17 Norte 27 Noroeste 0 -- -- 83
2018-09-09 08:00:00 17.7 19 Noroeste 24 Noroeste 0 -- -- 87
2018-09-09 07:00:00 17.3 15 Noroeste 24 Noroeste 0 -- -- 86
2018-09-09 06:00:00 17.2 14 Noroeste 20 Norte 0 -- -- 86
2018-09-09 05:00:00 17.3 12 Norte 19 Norte 0 -- -- 84
2018-09-09 04:00:00 17.8 13 Norte 22 Norte 0 -- -- 83
2018-09-09 03:00:00 18.3 15 Norte 31 Norte 0 -- -- 80
2018-09-09 02:00:00 18.6 21 Norte 30 Norte 0 -- -- 81
2018-09-09 01:00:00 18.4 14 Norte 30 Norte 0 -- -- 83
2018-09-09 00:00:00 18.8 20 Norte 30 Norte 0 -- -- 82
2018-09-08 23:00:00 19 18 Norte 31 Norte 0 -- -- 81
2018-09-08 22:00:00 19.4 21 Norte 32 Norte 0 -- -- 78
2018-09-08 21:00:00 20 22 Norte 35 Noroeste 0 -- -- 78
2018-09-08 20:00:00 21 24 Norte 40 Norte 0 -- -- 67
2018-09-08 19:00:00 22.4 32 Noroeste 46 Noroeste 0 -- -- 62
2018-09-08 18:00:00 23.7 29 Norte 49 Noroeste 0 -- -- 57
2018-09-08 17:00:00 24.6 32 Noroeste 48 Noroeste 0 -- -- 57
2018-09-08 16:00:00 25.1 31 Norte 50 Norte 0 -- -- 57
2018-09-08 15:00:00 25.8 21 Nordeste 38 Nordeste 0 -- -- 49
2018-09-08 14:00:00 25.2 19 Nordeste 43 Nordeste 0 -- -- 49
2018-09-08 13:00:00 23.8 23 Nordeste 34 Nordeste 0 -- -- 55
2018-09-08 12:00:00 23.4 19 Nordeste 38 Nordeste 0 -- -- 57
2018-09-08 11:00:00 22.5 17 Nordeste 29 Nordeste 0 -- -- 62
2018-09-08 10:00:00 21.6 16 Nordeste 24 Nordeste 0 -- -- 67
2018-09-08 09:00:00 19.1 8 Norte 16 Noroeste 0 -- -- 79
2018-09-08 08:00:00 16 9 Norte 15 Noroeste 0 -- -- 90
2018-09-08 07:00:00 16.2 7 Norte 17 Noroeste 0 -- -- 88
2018-09-08 06:00:00 16 8 Norte 17 Noroeste 0 -- -- 88
2018-09-08 05:00:00 16 9 Noroeste 12 Noroeste 0 -- -- 90
2018-09-08 04:00:00 16.9 7 Norte 17 Noroeste 0 -- -- 87
2018-09-08 03:00:00 17.6 15 Noroeste 19 Noroeste 0 -- -- 86
2018-09-08 02:00:00 17.8 12 Norte 19 Noroeste 0 -- -- 86
2018-09-08 01:00:00 17.9 13 Norte 19 Norte 0 -- -- 84
2018-09-08 00:00:00 18.3 12 Norte 19 Norte 0 -- -- 82
2018-09-07 23:00:00 18.8 13 Norte 24 Norte 0 -- -- 80
2018-09-07 22:00:00 19.5 19 Norte 31 Noroeste 0 -- -- 77
2018-09-07 21:00:00 20 21 Noroeste 36 Norte 0 -- -- 77
2018-09-07 20:00:00 20.6 26 Noroeste 42 Noroeste 0 -- -- 74
2018-09-07 19:00:00 21.9 32 Noroeste 41 Norte 0 -- -- 68
2018-09-07 18:00:00 23.8 28 Noroeste 43 Norte 0 -- -- 58
2018-09-07 17:00:00 24.8 30 Noroeste 44 Noroeste 0 -- -- 56
2018-09-07 16:00:00 25.8 29 Noroeste 47 Norte 0 -- -- 50
2018-09-07 15:00:00 24.6 17 Nordeste 54 Nordeste 0 -- -- 60
2018-09-07 14:00:00 24.4 12 Nordeste 27 Norte 0 -- -- 58
2018-09-07 13:00:00 23.4 14 Nordeste 30 Nordeste 0 -- -- 65
2018-09-07 12:00:00 24.1 18 Nordeste 30 Nordeste 0 -- -- 60
2018-09-07 11:00:00 22.7 19 Nordeste 33 Nordeste 0 -- -- 61
2018-09-07 10:00:00 21.7 19 Nordeste 29 Nordeste 0 -- -- 67
2018-09-07 09:00:00 20.5 12 Nordeste 21 Norte 0 -- -- 78
2018-09-07 08:00:00 17.6 12 Norte 17 Norte 0 -- -- 91
2018-09-07 07:00:00 17.4 3 Norte 10 Noroeste 0 -- -- 92
2018-09-07 06:00:00 17.8 8 Noroeste 13 Noroeste 0 -- -- 93
2018-09-07 05:00:00 17 8 Noroeste 12 Noroeste 0 -- -- 92
2018-09-07 04:00:00 17.9 9 Noroeste 13 Noroeste 0 -- -- 92
2018-09-07 03:00:00 18.4 12 Norte 18 Norte 0 -- -- 91
2018-09-07 02:00:00 18.7 12 Norte 17 Norte 0 -- -- 88
2018-09-07 01:00:00 19.1 10 Norte 17 Nordeste 0 -- -- 85
2018-09-07 00:00:00 19.9 9 Nordeste 21 Norte 0 -- -- 84
2018-09-06 23:00:00 20.2 10 Norte 16 Norte 0 -- -- 88
2018-09-06 22:00:00 20.3 12 Nordeste 24 Nordeste 0 -- -- 85
2018-09-06 21:00:00 20.8 13 Nordeste 22 Nordeste 0 -- -- 80
2018-09-06 20:00:00 21.7 19 Nordeste 25 Nordeste 0 -- -- 77
2018-09-06 19:00:00 23.2 16 Nordeste 25 Nordeste 0 -- -- 73
2018-09-06 18:00:00 23.7 15 Norte 31 Noroeste 0 -- -- 70
2018-09-06 17:00:00 24.9 21 Noroeste 28 Noroeste 0 -- -- 68
2018-09-06 16:00:00 26.3 11 Nordeste 23 Este 0 -- -- 62
2018-09-06 15:00:00 25.1 14 Nordeste 27 Nordeste 0 -- -- 62
2018-09-06 14:00:00 24.9 18 Nordeste 28 Nordeste 0 -- -- 63
2018-09-06 13:00:00 23.5 15 Nordeste 27 Nordeste 0 -- -- 72
2018-09-06 12:00:00 22.2 14 Nordeste 26 Este 0 -- -- 78
2018-09-06 11:00:00 21.2 17 Este 25 Este 0 -- -- 86
2018-09-06 10:00:00 20.8 0 Calma 13 Sudoeste 0 -- -- 85
2018-09-06 09:00:00 20.3 5 Sudoeste 19 Noroeste 0 -- -- 86
2018-09-06 08:00:00 19.8 18 Noroeste 30 Noroeste 0 -- -- 91
2018-09-06 07:00:00 19.7 24 Noroeste 38 Noroeste 0 -- -- 93
2018-09-06 06:00:00 19.9 26 Noroeste 37 Noroeste 0 -- -- 90
2018-09-06 05:00:00 19.8 20 Noroeste 30 Noroeste 0.2 -- -- 90
2018-09-06 04:00:00 20.1 13 Norte 22 Norte 0 -- -- 87
2018-09-06 03:00:00 20.3 11 Norte 22 Norte 0 -- -- 85
2018-09-06 02:00:00 20.3 14 Nordeste 21 Nordeste 0 -- -- 88
2018-09-06 01:00:00 20.3 13 Nordeste 22 Nordeste 0 -- -- 87
2018-09-06 00:00:00 20.7 8 Nordeste 23 Norte 0 -- -- 86
2018-09-05 23:00:00 20.8 16 Norte 30 Norte 0 -- -- 86
2018-09-05 22:00:00 20.9 22 Norte 34 Norte 0 -- -- 85
2018-09-05 21:00:00 21.6 22 Norte 34 Norte 0 -- -- 80
2018-09-05 20:00:00 22.2 26 Norte 36 Norte 0 -- -- 76
2018-09-05 19:00:00 23.5 28 Norte 37 Norte 0 -- -- 70
2018-09-05 18:00:00 25.5 22 Norte 38 Noroeste 0 -- -- 64
2018-09-05 17:00:00 26.3 27 Norte 42 Norte 0 -- -- 60
2018-09-05 16:00:00 26.3 31 Norte 44 Norte 0 -- -- 61
2018-09-05 15:00:00 27.2 19 Norte 42 Norte 0 -- -- 58
2018-09-05 14:00:00 26.7 30 Noroeste 47 Norte 0 -- -- 61
2018-09-05 13:00:00 27.2 18 Norte 31 Norte 0 -- -- 58
2018-09-05 12:00:00 26.1 14 Norte 24 Norte 0 -- -- 60
2018-09-05 11:00:00 23.7 14 Norte 24 Norte 0 -- -- 68
2018-09-05 10:00:00 22.1 17 Nordeste 29 Nordeste 0 -- -- 76
2018-09-05 09:00:00 20.3 13 Nordeste 21 Norte 0 -- -- 83
2018-09-05 08:00:00 18.1 8 Norte 14 Norte 0 -- -- 88
2018-09-05 07:00:00 18.3 9 Norte 16 Noroeste 0 -- -- 92
2018-09-05 06:00:00 18.4 12 Norte 21 Norte 0 -- -- 93
2018-09-05 05:00:00 18.7 14 Noroeste 18 Noroeste 0 -- -- 93
2018-09-05 04:00:00 19 12 Norte 24 Norte 0 -- -- 92
2018-09-05 03:00:00 19.3 19 Norte 28 Noroeste 0 -- -- 91
2018-09-05 02:00:00 19.6 22 Norte 42 Noroeste 0 -- -- 91
2018-09-05 01:00:00 19.7 28 Noroeste 41 Noroeste 0 -- -- 90
2018-09-05 00:00:00 19.9 24 Norte 38 Norte 0 -- -- 90
2018-09-04 23:00:00 20.1 25 Norte 37 Noroeste 0 -- -- 89
2018-09-04 22:00:00 20.3 29 Norte 40 Norte 0 -- -- 87
2018-09-04 21:00:00 20.6 24 Noroeste 36 Noroeste 0 -- -- 85
2018-09-04 20:00:00 21.4 26 Noroeste 36 Noroeste 0 -- -- 80
2018-09-04 19:00:00 23.4 26 Noroeste 37 Norte 0 -- -- 71
2018-09-04 18:00:00 24.6 28 Noroeste 39 Noroeste 0 -- -- 68
2018-09-04 17:00:00 26 30 Noroeste 49 Norte 0 -- -- 62
2018-09-04 16:00:00 27 17 Norte 31 Este 0 -- -- 55
2018-09-04 15:00:00 25.6 20 Nordeste 31 Este 0 -- -- 60
2018-09-04 14:00:00 25.2 23 Nordeste 35 Nordeste 0 -- -- 63
2018-09-04 13:00:00 25 21 Nordeste 35 Este 0 -- -- 65
2018-09-04 12:00:00 24.7 19 Nordeste 33 Este 0 -- -- 62
2018-09-04 11:00:00 23.5 16 Nordeste 26 Nordeste 0 -- -- 66
2018-09-04 10:00:00 22.3 15 Nordeste 34 Norte 0 -- -- 71
2018-09-04 09:00:00 20.7 21 Norte 30 Norte 0 -- -- 79
2018-09-04 08:00:00 19 14 Norte 20 Norte 0 -- -- 88
2018-09-04 07:00:00 18.1 14 Norte 19 Norte 0 -- -- 86
2018-09-04 06:00:00 18.9 16 Norte 24 Norte 0 -- -- 88
2018-09-04 05:00:00 18.6 14 Norte 19 Norte 0 -- -- 87
2018-09-04 04:00:00 19 14 Norte 24 Norte 0 -- -- 85
2018-09-04 03:00:00 19.7 13 Norte 19 Norte 0 -- -- 82
2018-09-04 02:00:00 19.3 10 Norte 17 Norte 0 -- -- 84
2018-09-04 01:00:00 19.3 13 Norte 16 Norte 0 -- -- 86
2018-09-04 00:00:00 19.2 11 Norte 26 Norte 0 -- -- 86
2018-09-03 23:00:00 19.6 21 Norte 34 Norte 0 -- -- 85
2018-09-03 22:00:00 20.1 21 Norte 35 Norte 0 -- -- 82
2018-09-03 21:00:00 20.4 27 Norte 40 Norte 0 -- -- 80
2018-09-03 20:00:00 21.3 29 Noroeste 43 Noroeste 0 -- -- 77
2018-09-03 19:00:00 23.1 30 Noroeste 43 Noroeste 0 -- -- 70
2018-09-03 18:00:00 24.6 33 Noroeste 43 Noroeste 0 -- -- 66
2018-09-03 17:00:00 26.1 29 Norte 44 Noroeste 0 -- -- 57
2018-09-03 16:00:00 26.8 28 Noroeste 43 Nordeste 0 -- -- 58
2018-09-03 15:00:00 26.2 21 Nordeste 31 Nordeste 0 -- -- 58
2018-09-03 14:00:00 25.9 21 Nordeste 31 Noroeste 0 -- -- 59
2018-09-03 13:00:00 26.3 22 Norte 36 Noroeste 0 -- -- 58
2018-09-03 12:00:00 25.4 24 Norte 39 Norte 0 -- -- 60
2018-09-03 11:00:00 23.6 29 Norte 41 Noroeste 0 -- -- 65
2018-09-03 10:00:00 22 21 Norte 31 Norte 0 -- -- 73
2018-09-03 09:00:00 20.1 15 Norte 20 Norte 0 -- -- 81
2018-09-03 08:00:00 17.6 10 Norte 14 Norte 0 -- -- 86
2018-09-03 07:00:00 17.6 12 Norte 14 Noroeste 0 -- -- 86
2018-09-03 06:00:00 18.1 9 Norte 17 Nordeste 0 -- -- 84
2018-09-03 05:00:00 19.3 10 Norte 23 Norte 0 -- -- 81
2018-09-03 04:00:00 19.6 14 Norte 22 Nordeste 0 -- -- 82
2018-09-03 03:00:00 18.5 9 Norte 17 Norte 0 -- -- 86
2018-09-03 02:00:00 18.8 12 Norte 20 Noroeste 0 -- -- 85
2018-09-03 01:00:00 19.3 13 Norte 21 Norte 0 -- -- 86
2018-09-03 00:00:00 19.6 13 Norte 27 Norte 0 -- -- 86
2018-09-02 23:00:00 19.9 19 Norte 30 Norte 0 -- -- 85
2018-09-02 22:00:00 20.1 19 Norte 35 Norte 0 -- -- 84
2018-09-02 21:00:00 20.5 23 Norte 35 Noroeste 0 -- -- 82
2018-09-02 20:00:00 21.1 28 Norte 46 Noroeste 0 -- -- 79
2018-09-02 19:00:00 22.3 36 Noroeste 46 Noroeste 0 -- -- 74
2018-09-02 18:00:00 23.6 33 Noroeste 45 Noroeste 0 -- -- 68
2018-09-02 17:00:00 24.1 32 Noroeste 42 Norte 0 -- -- 65
2018-09-02 16:00:00 24.5 30 Norte 42 Norte 0 -- -- 65
2018-09-02 15:00:00 25.5 27 Norte 42 Noroeste 0 -- -- 64
2018-09-02 14:00:00 25.8 26 Noroeste 39 Noroeste 0 -- -- 61
2018-09-02 13:00:00 25.8 19 Noroeste 31 Noroeste 0 -- -- 58
2018-09-02 12:00:00 25.2 13 Norte 24 Norte 0 -- -- 57
2018-09-02 11:00:00 23.7 16 Norte 28 Norte 0 -- -- 62
2018-09-02 10:00:00 22.2 15 Norte 23 Norte 0 -- -- 69
2018-09-02 09:00:00 20.2 9 Nordeste 15 Nordeste 0 -- -- 78
2018-09-02 08:00:00 18.6 5 Norte 9 Norte 0 -- -- 86
2018-09-02 07:00:00 18.1 8 Norte 17 Norte 0 -- -- 88
2018-09-02 06:00:00 18 8 Nordeste 19 Norte 0 -- -- 89
2018-09-02 05:00:00 18.7 13 Norte 28 Norte 0 -- -- 86
2018-09-02 04:00:00 18.9 19 Norte 28 Norte 0 -- -- 86
2018-09-02 03:00:00 19.3 19 Noroeste 27 Noroeste 0 -- -- 86
2018-09-02 02:00:00 19.3 22 Noroeste 33 Norte 0 -- -- 87
2018-09-02 01:00:00 19.5 28 Noroeste 40 Noroeste 0 -- -- 89
2018-09-02 00:00:00 19.6 24 Noroeste 41 Noroeste 0 -- -- 85
2018-09-01 23:00:00 20 23 Noroeste 34 Noroeste 0 -- -- 87
2018-09-01 22:00:00 20.2 19 Norte 35 Noroeste 0 -- -- 84
2018-09-01 21:00:00 20.5 28 Noroeste 35 Noroeste 0 -- -- 85
2018-09-01 20:00:00 21.2 27 Noroeste 35 Noroeste 0 -- -- 76
2018-09-01 19:00:00 23.1 27 Norte 35 Norte 0 -- -- 69
2018-09-01 18:00:00 24.6 22 Norte 33 Norte 0 -- -- 65
2018-09-01 17:00:00 25.6 24 Noroeste 36 Noroeste 0 -- -- 62
2018-09-01 16:00:00 26.4 24 Norte 34 Noroeste 0 -- -- 60
2018-09-01 15:00:00 26.2 21 Norte 33 Noroeste 0 -- -- 59
2018-09-01 14:00:00 26.7 20 Noroeste 33 Norte 0 -- -- 57
2018-09-01 13:00:00 25.8 21 Norte 33 Norte 0 -- -- 59
2018-09-01 12:00:00 25.2 17 Norte 30 Noroeste 0 -- -- 60
2018-09-01 11:00:00 23.6 17 Norte 31 Norte 0 -- -- 66
2018-09-01 10:00:00 22 13 Nordeste 35 Norte 0 -- -- 72
2018-09-01 09:00:00 20.8 26 Norte 37 Norte 0 -- -- 75
2018-09-01 08:00:00 20 21 Norte 30 Norte 0 -- -- 80
2018-09-01 07:00:00 19.8 18 Norte 31 Norte 0 -- -- 80
2018-09-01 06:00:00 19.8 24 Norte 36 Norte 0 -- -- 78
2018-09-01 05:00:00 20.2 22 Norte 34 Norte 0 -- -- 78
2018-09-01 04:00:00 20.3 19 Norte 31 Norte 0 -- -- 78
2018-09-01 03:00:00 20.3 18 Norte 29 Norte 0 -- -- 77
2018-09-01 02:00:00 20.3 19 Norte 30 Norte 0 -- -- 77
2018-09-01 01:00:00 20.2 18 Norte 25 Norte 0 -- -- 81
2018-09-01 00:00:00 20.2 20 Norte 35 Norte 0 -- -- 81
2018-08-31 23:00:00 20 25 Norte 39 Norte 0 -- -- 85
2018-08-31 22:00:00 20.1 29 Norte 44 Norte 0 -- -- 83
2018-08-31 21:00:00 20.4 33 Noroeste 44 Noroeste 0 -- -- 82
2018-08-31 20:00:00 21 30 Noroeste 43 Noroeste 0 -- -- 81
2018-08-31 19:00:00 22.1 33 Noroeste 46 Norte 0 -- -- 76
2018-08-31 18:00:00 23.5 32 Noroeste 46 Noroeste 0 -- -- 69
2018-08-31 17:00:00 24.1 34 Norte 49 Noroeste 0 -- -- 68
2018-08-31 16:00:00 24.9 35 Noroeste 50 Noroeste 0 -- -- 66
2018-08-31 15:00:00 25.3 36 Norte 49 Norte 0 -- -- 62
2018-08-31 14:00:00 25.7 30 Norte 45 Norte 0 -- -- 58
2018-08-31 13:00:00 25.3 28 Norte 47 Norte 0 -- -- 58
2018-08-31 12:00:00 24.2 25 Norte 40 Norte 0 -- -- 62
2018-08-31 11:00:00 22.8 29 Norte 42 Norte 0 -- -- 65
2018-08-31 10:00:00 21.4 26 Norte 37 Norte 0 -- -- 73
2018-08-31 09:00:00 20.6 28 Norte 40 Norte 0 -- -- 74
2018-08-31 08:00:00 19.2 23 Norte 40 Norte 0 -- -- 77
2018-08-31 07:00:00 19 25 Norte 42 Norte 0 -- -- 77
2018-08-31 06:00:00 19.2 29 Norte 41 Norte 0 -- -- 76
2018-08-31 05:00:00 19.4 26 Norte 35 Norte 0 -- -- 76
2018-08-31 04:00:00 19.7 21 Norte 35 Norte 0 -- -- 78
2018-08-31 03:00:00 19.6 23 Norte 35 Norte 0 -- -- 79
2018-08-31 02:00:00 19.8 19 Norte 30 Norte 0 -- -- 81
2018-08-31 01:00:00 19.5 25 Norte 39 Norte 0 -- -- 80
2018-08-31 00:00:00 20.1 23 Norte 39 Norte 0 -- -- 84
2018-08-30 23:00:00 20 33 Norte 49 Norte 0 -- -- 81
2018-08-30 22:00:00 19.9 29 Norte 44 Noroeste 0 -- -- 79
2018-08-30 21:00:00 20.4 29 Norte 49 Noroeste 0 -- -- 80
2018-08-30 20:00:00 21.2 33 Norte 49 Norte 0 -- -- 75
2018-08-30 19:00:00 23.3 32 Norte 49 Norte 0 -- -- 68
2018-08-30 18:00:00 25 32 Norte 50 Noroeste 0 -- -- 61
2018-08-30 17:00:00 25.8 35 Norte 53 Norte 0 -- -- 60
2018-08-30 16:00:00 26.9 32 Norte 69 Norte 0 -- -- 58
2018-08-30 15:00:00 26.6 26 Nordeste 42 Nordeste 0 -- -- 58
2018-08-30 14:00:00 26.3 27 Nordeste 40 Este 0 -- -- 58
2018-08-30 13:00:00 26.3 20 Nordeste 35 Nordeste 0 -- -- 57
2018-08-30 12:00:00 25.2 19 Nordeste 29 Nordeste 0 -- -- 59
2018-08-30 11:00:00 23.6 17 Norte 27 Norte 0 -- -- 65
2018-08-30 10:00:00 21.8 18 Norte 25 Norte 0 -- -- 73
2018-08-30 09:00:00 19.8 17 Norte 22 Norte 0 -- -- 82
2018-08-30 08:00:00 17.5 13 Norte 21 Noroeste 0 -- -- 90
2018-08-30 07:00:00 17.6 14 Norte 20 Norte 0 -- -- 89
2018-08-30 06:00:00 17.7 15 Norte 20 Norte 0 -- -- 89
2018-08-30 05:00:00 17.9 14 Norte 18 Norte 0 -- -- 88
2018-08-30 04:00:00 18.4 12 Norte 28 Nordeste 0 -- -- 84
2018-08-30 03:00:00 19.3 14 Norte 27 Nordeste 0 -- -- 81
2018-08-30 02:00:00 19.6 17 Nordeste 28 Norte 0 -- -- 80
2018-08-30 01:00:00 19.6 21 Norte 31 Norte 0 -- -- 80
2018-08-30 00:00:00 19.9 18 Norte 28 Norte 0 -- -- 80
2018-08-29 23:00:00 20.2 14 Nordeste 27 Nordeste 0 -- -- 80
2018-08-29 22:00:00 20.5 15 Nordeste 35 Norte 0 -- -- 80
2018-08-29 21:00:00 20.8 26 Norte 40 Norte 0 -- -- 81
2018-08-29 20:00:00 22.3 32 Norte 42 Noroeste 0 -- -- 76
2018-08-29 19:00:00 23.7 24 Nordeste 36 Norte 0 -- -- 71
2018-08-29 18:00:00 24.7 27 Nordeste 40 Nordeste 0 -- -- 67
2018-08-29 17:00:00 25.4 29 Nordeste 45 Nordeste 0 -- -- 65
2018-08-29 16:00:00 25.7 27 Nordeste 51 Nordeste 0 -- -- 63
2018-08-29 15:00:00 26 28 Nordeste 44 Nordeste 0 -- -- 61
2018-08-29 14:00:00 25.6 27 Nordeste 43 Nordeste 0 -- -- 64
2018-08-29 13:00:00 24.8 30 Nordeste 44 Nordeste 0 -- -- 65
2018-08-29 12:00:00 24.6 25 Nordeste 47 Nordeste 0 -- -- 65
2018-08-29 11:00:00 23.1 26 Nordeste 48 Nordeste 0 -- -- 72
2018-08-29 10:00:00 22.2 26 Norte 39 Nordeste 0 -- -- 72
2018-08-29 09:00:00 21 18 Norte 29 Nordeste 0 -- -- 77
2018-08-29 08:00:00 19.9 18 Norte 30 Norte 0 -- -- 82
2018-08-29 07:00:00 19.7 17 Norte 29 Norte 0 -- -- 84
2018-08-29 06:00:00 19.4 14 Norte 30 Norte 0 -- -- 82
2018-08-29 05:00:00 19.1 12 Norte 23 Norte 0 -- -- 84
2018-08-29 04:00:00 18.7 11 Norte 20 Norte 0 -- -- 87
2018-08-29 03:00:00 19 12 Norte 19 Norte 0 -- -- 89
2018-08-29 02:00:00 18.7 14 Norte 20 Norte 0 -- -- 90
2018-08-29 01:00:00 19 14 Norte 26 Norte 0 -- -- 90
2018-08-29 00:00:00 19.4 19 Norte 32 Noroeste 0 -- -- 89
2018-08-28 23:00:00 19.7 22 Norte 35 Norte 0 -- -- 86
2018-08-28 22:00:00 20.1 28 Noroeste 39 Noroeste 0 -- -- 83
2018-08-28 21:00:00 20.8 27 Norte 36 Noroeste 0 -- -- 75
2018-08-28 20:00:00 21.9 26 Norte 42 Noroeste 0 -- -- 73
2018-08-28 19:00:00 23.6 29 Norte 41 Noroeste 0 -- -- 68
2018-08-28 18:00:00 24.9 32 Noroeste 46 Noroeste 0 -- -- 65
2018-08-28 17:00:00 26.2 31 Noroeste 42 Norte 0 -- -- 62
2018-08-28 16:00:00 27.2 19 Norte 41 Norte 0 -- -- 59
2018-08-28 15:00:00 26.5 23 Nordeste 33 Nordeste 0 -- -- 60
2018-08-28 14:00:00 26.2 22 Nordeste 32 Nordeste 0 -- -- 61
2018-08-28 13:00:00 25.8 17 Nordeste 29 Este 0 -- -- 62
2018-08-28 12:00:00 24.8 11 Nordeste 24 Nordeste 0 -- -- 64
2018-08-28 11:00:00 23.5 15 Norte 34 Noroeste 0 -- -- 69
2018-08-28 10:00:00 21.9 21 Norte 32 Norte 0 -- -- 78
2018-08-28 09:00:00 19.9 16 Norte 29 Noroeste 0 -- -- 88
2018-08-28 08:00:00 19.2 24 Noroeste 41 Norte 0 -- -- 91
2018-08-28 07:00:00 19.2 33 Noroeste 51 Noroeste 0 -- -- 90
2018-08-28 06:00:00 19 36 Noroeste 48 Noroeste 0 -- -- 91
2018-08-28 05:00:00 19 33 Noroeste 44 Noroeste 0 -- -- 88
2018-08-28 04:00:00 18.5 15 Noroeste 21 Noroeste 0 -- -- 88
2018-08-28 03:00:00 18.2 7 Noroeste 14 Norte 0 -- -- 92
2018-08-28 02:00:00 18.1 12 Noroeste 20 Noroeste 0 -- -- 91
2018-08-28 01:00:00 18.9 14 Norte 31 Noroeste 0 -- -- 89
2018-08-28 00:00:00 19.3 21 Noroeste 35 Noroeste 0 -- -- 88
2018-08-27 23:00:00 19.5 21 Norte 36 Norte 0 -- -- 87
2018-08-27 22:00:00 19.8 24 Norte 36 Noroeste 0 -- -- 85
2018-08-27 21:00:00 20.3 24 Norte 36 Noroeste 0 -- -- 81
2018-08-27 20:00:00 21 27 Norte 44 Norte 0 -- -- 79
2018-08-27 19:00:00 22.7 32 Noroeste 45 Noroeste 0 -- -- 72
2018-08-27 18:00:00 23.9 30 Norte 46 Noroeste 0 -- -- 67
2018-08-27 17:00:00 24.2 34 Noroeste 49 Norte 0 -- -- 65
2018-08-27 16:00:00 24.9 32 Norte 51 Noroeste 0 -- -- 62
2018-08-27 15:00:00 24.8 35 Norte 49 Noroeste 0 -- -- 62
2018-08-27 14:00:00 25 36 Norte 49 Noroeste 0 -- -- 61
2018-08-27 13:00:00 24.9 33 Norte 53 Noroeste 0 -- -- 62
2018-08-27 12:00:00 24.6 29 Noroeste 43 Noroeste 0 -- -- 61
2018-08-27 11:00:00 23.4 21 Norte 34 Norte 0 -- -- 66
2018-08-27 10:00:00 21.6 22 Norte 41 Norte 0 -- -- 76
2018-08-27 09:00:00 20 29 Norte 41 Noroeste 0 -- -- 82
2018-08-27 08:00:00 19 30 Noroeste 44 Noroeste 0 -- -- 86
2018-08-27 07:00:00 18.8 30 Noroeste 46 Noroeste 0 -- -- 88
2018-08-27 06:00:00 18.8 34 Noroeste 46 Noroeste 0 -- -- 89
2018-08-27 05:00:00 18.8 34 Noroeste 49 Noroeste 0 -- -- 90
2018-08-27 04:00:00 18.7 27 Noroeste 35 Noroeste 0 -- -- 92
2018-08-27 03:00:00 18.8 22 Noroeste 30 Noroeste 0 -- -- 93
2018-08-27 02:00:00 19.2 18 Norte 35 Noroeste 0 -- -- 92
2018-08-27 01:00:00 19.4 23 Noroeste 32 Noroeste 0 -- -- 90
2018-08-27 00:00:00 19.6 23 Noroeste 40 Noroeste 0 -- -- 89
2018-08-26 23:00:00 19.9 24 Norte 36 Noroeste 0 -- -- 88
2018-08-26 22:00:00 20.2 25 Norte 39 Norte 0 -- -- 87
2018-08-26 21:00:00 20.8 26 Norte 37 Noroeste 0 -- -- 85
2018-08-26 20:00:00 21.8 24 Noroeste 38 Norte 0 -- -- 81
2018-08-26 19:00:00 23.5 26 Noroeste 41 Noroeste 0 -- -- 74
2018-08-26 18:00:00 24.8 29 Norte 42 Noroeste 0 -- -- 69
2018-08-26 17:00:00 25.6 30 Noroeste 41 Norte 0 -- -- 67
2018-08-26 16:00:00 26.3 31 Norte 41 Noroeste 0 -- -- 63
2018-08-26 15:00:00 26.8 32 Noroeste 45 Noroeste 0 -- -- 62
2018-08-26 14:00:00 26.9 30 Noroeste 40 Noroeste 0 -- -- 62
2018-08-26 13:00:00 27 25 Norte 34 Noroeste 0 -- -- 61
2018-08-26 12:00:00 25.3 23 Norte 35 Norte 0 -- -- 66
2018-08-26 11:00:00 24.1 26 Norte 34 Norte 0 -- -- 69
2018-08-26 10:00:00 22.5 22 Norte 35 Noroeste 0 -- -- 79
2018-08-26 09:00:00 20.6 22 Norte 33 Noroeste 0 -- -- 91
2018-08-26 08:00:00 19.5 19 Norte 33 Noroeste 0 -- -- 94
2018-08-26 07:00:00 19.3 21 Noroeste 33 Noroeste 0 -- -- 93
2018-08-26 06:00:00 19.4 23 Noroeste 35 Noroeste 0 -- -- 93
2018-08-26 05:00:00 19.6 24 Noroeste 35 Noroeste 0 -- -- 92
2018-08-26 04:00:00 20.9 19 Noroeste 27 Noroeste 0 -- -- 76
2018-08-26 03:00:00 21.9 6 Norte 21 Noroeste 0 -- -- 48
2018-08-26 02:00:00 22 10 Norte 20 Norte 0 -- -- 38
2018-08-26 01:00:00 21.2 6 Noroeste 14 Noroeste 0 -- -- 63
2018-08-26 00:00:00 21.4 9 Noroeste 22 Noroeste 0 -- -- 77
2018-08-25 23:00:00 22.6 16 Noroeste 23 Norte 0 -- -- 67
2018-08-25 22:00:00 22.9 14 Norte 30 Noroeste 0 -- -- 73
2018-08-25 21:00:00 24 20 Noroeste 27 Noroeste 0 -- -- 72
2018-08-25 20:00:00 26.7 15 Norte 25 Norte 0 -- -- 62
2018-08-25 19:00:00 30.6 18 Norte 33 Nordeste 0 -- -- 40
2018-08-25 18:00:00 30.5 25 Nordeste 41 Nordeste 0 -- -- 27
2018-08-25 17:00:00 30.9 28 Nordeste 46 Nordeste 0 -- -- 28
2018-08-25 16:00:00 31.6 30 Nordeste 48 Nordeste 0 -- -- 26
2018-08-25 15:00:00 31.8 30 Nordeste 45 Nordeste 0 -- -- 27
2018-08-25 14:00:00 32.3 30 Nordeste 45 Nordeste 0 -- -- 26
2018-08-25 13:00:00 31.9 31 Nordeste 51 Nordeste 0 -- -- 27
2018-08-25 12:00:00 29.6 18 Norte 31 Norte 0 -- -- 46
2018-08-25 11:00:00 27.9 9 Norte 22 Norte 0 -- -- 53
2018-08-25 10:00:00 26.6 11 Norte 20 Noroeste 0 -- -- 54
2018-08-25 09:00:00 24.9 10 Noroeste 18 Noroeste 0 -- -- 53
2018-08-25 08:00:00 22.3 13 Noroeste 20 Noroeste 0 -- -- 58
2018-08-25 07:00:00 20.5 7 Norte 14 Noroeste 0 -- -- 66
2018-08-25 06:00:00 19.9 7 Noroeste 10 Noroeste 0 -- -- 60
2018-08-25 05:00:00 20.4 5 Norte 13 Noroeste 0 -- -- 64
2018-08-25 04:00:00 19.9 8 Noroeste 14 Norte 0 -- -- 79
2018-08-25 03:00:00 20.6 11 Norte 20 Norte 0 -- -- 87
2018-08-25 02:00:00 21.2 13 Norte 19 Noroeste 0 -- -- 80
2018-08-25 01:00:00 23.4 13 Norte 26 Noroeste 0 -- -- 55
2018-08-25 00:00:00 23.8 18 Noroeste 30 Noroeste 0 -- -- 52